sensor_id;sensor_type;location;lat;lon;timestamp;P1;durP1;ratioP1;P2;durP2;ratioP2
1693;SDS011;844;47.058;15.472;2022-09-30T00:01:55;7.90;;;7.20;;
1693;SDS011;844;47.058;15.472;2022-09-30T00:04:26;9.70;;;8.47;;
1693;SDS011;844;47.058;15.472;2022-09-30T00:06:55;8.10;;;7.50;;
1693;SDS011;844;47.058;15.472;2022-09-30T00:09:25;8.17;;;7.50;;
1693;SDS011;844;47.058;15.472;2022-09-30T00:11:54;10.37;;;9.37;;
1693;SDS011;844;47.058;15.472;2022-09-30T00:14:23;9.30;;;8.50;;
1693;SDS011;844;47.058;15.472;2022-09-30T00:16:53;11.57;;;10.37;;
1693;SDS011;844;47.058;15.472;2022-09-30T00:19:22;8.60;;;7.90;;
1693;SDS011;844;47.058;15.472;2022-09-30T00:21:53;10.50;;;9.60;;
1693;SDS011;844;47.058;15.472;2022-09-30T00:24:22;9.60;;;8.70;;
1693;SDS011;844;47.058;15.472;2022-09-30T00:26:52;9.03;;;8.30;;
1693;SDS011;844;47.058;15.472;2022-09-30T00:29:21;9.67;;;8.87;;
1693;SDS011;844;47.058;15.472;2022-09-30T00:31:50;8.53;;;7.73;;
1693;SDS011;844;47.058;15.472;2022-09-30T00:34:20;8.20;;;7.37;;
1693;SDS011;844;47.058;15.472;2022-09-30T00:36:50;8.57;;;7.77;;
1693;SDS011;844;47.058;15.472;2022-09-30T00:39:22;8.20;;;7.57;;
1693;SDS011;844;47.058;15.472;2022-09-30T00:41:52;9.10;;;8.37;;
1693;SDS011;844;47.058;15.472;2022-09-30T00:44:44;7.50;;;6.90;;
1693;SDS011;844;47.058;15.472;2022-09-30T00:47:24;10.07;;;9.17;;
1693;SDS011;844;47.058;15.472;2022-09-30T00:50:02;8.13;;;7.10;;
1693;SDS011;844;47.058;15.472;2022-09-30T00:52:38;7.17;;;6.57;;
1693;SDS011;844;47.058;15.472;2022-09-30T00:55:12;10.20;;;9.30;;
1693;SDS011;844;47.058;15.472;2022-09-30T00:57:50;7.33;;;6.63;;
1693;SDS011;844;47.058;15.472;2022-09-30T01:00:19;7.43;;;6.80;;
1693;SDS011;844;47.058;15.472;2022-09-30T01:02:49;9.27;;;8.57;;
1693;SDS011;844;47.058;15.472;2022-09-30T01:05:19;9.33;;;8.43;;
1693;SDS011;844;47.058;15.472;2022-09-30T01:07:49;8.57;;;7.73;;
1693;SDS011;844;47.058;15.472;2022-09-30T01:10:19;8.67;;;7.87;;
1693;SDS011;844;47.058;15.472;2022-09-30T01:12:49;7.97;;;6.57;;
1693;SDS011;844;47.058;15.472;2022-09-30T01:15:19;7.17;;;6.47;;
1693;SDS011;844;47.058;15.472;2022-09-30T01:17:51;8.77;;;8.00;;
1693;SDS011;844;47.058;15.472;2022-09-30T01:20:42;10.20;;;9.30;;
1693;SDS011;844;47.058;15.472;2022-09-30T01:23:31;9.90;;;8.90;;
1693;SDS011;844;47.058;15.472;2022-09-30T01:26:26;8.60;;;7.80;;
1693;SDS011;844;47.058;15.472;2022-09-30T01:32:20;8.93;;;8.10;;
1693;SDS011;844;47.058;15.472;2022-09-30T01:34:58;8.63;;;7.93;;
1693;SDS011;844;47.058;15.472;2022-09-30T01:37:36;10.43;;;9.43;;
1693;SDS011;844;47.058;15.472;2022-09-30T01:40:12;11.07;;;8.40;;
1693;SDS011;844;47.058;15.472;2022-09-30T01:42:50;11.30;;;10.30;;
1693;SDS011;844;47.058;15.472;2022-09-30T01:45:25;11.47;;;10.37;;
1693;SDS011;844;47.058;15.472;2022-09-30T01:48:01;11.03;;;10.13;;
1693;SDS011;844;47.058;15.472;2022-09-30T01:50:35;10.00;;;9.00;;
1693;SDS011;844;47.058;15.472;2022-09-30T01:53:13;9.97;;;8.83;;
1693;SDS011;844;47.058;15.472;2022-09-30T01:55:47;11.40;;;10.37;;
1693;SDS011;844;47.058;15.472;2022-09-30T01:58:18;10.13;;;8.13;;
1693;SDS011;844;47.058;15.472;2022-09-30T02:00:53;8.87;;;8.10;;
1693;SDS011;844;47.058;15.472;2022-09-30T02:03:29;8.67;;;7.87;;
1693;SDS011;844;47.058;15.472;2022-09-30T02:06:01;10.50;;;9.30;;
1693;SDS011;844;47.058;15.472;2022-09-30T02:08:34;8.43;;;7.60;;
1693;SDS011;844;47.058;15.472;2022-09-30T02:11:08;7.77;;;7.00;;
1693;SDS011;844;47.058;15.472;2022-09-30T02:13:41;8.60;;;7.80;;
1693;SDS011;844;47.058;15.472;2022-09-30T02:16:14;7.33;;;6.73;;
1693;SDS011;844;47.058;15.472;2022-09-30T02:18:51;7.77;;;7.07;;
1693;SDS011;844;47.058;15.472;2022-09-30T02:21:24;7.70;;;6.90;;
1693;SDS011;844;47.058;15.472;2022-09-30T02:23:58;7.60;;;7.00;;
1693;SDS011;844;47.058;15.472;2022-09-30T02:26:31;11.53;;;10.43;;
1693;SDS011;844;47.058;15.472;2022-09-30T02:29:04;9.67;;;8.57;;
1693;SDS011;844;47.058;15.472;2022-09-30T02:31:36;10.30;;;8.77;;
1693;SDS011;844;47.058;15.472;2022-09-30T02:34:11;8.97;;;8.10;;
1693;SDS011;844;47.058;15.472;2022-09-30T02:36:43;8.67;;;7.93;;
1693;SDS011;844;47.058;15.472;2022-09-30T02:39:15;6.87;;;5.80;;
1693;SDS011;844;47.058;15.472;2022-09-30T02:41:50;8.63;;;7.90;;
1693;SDS011;844;47.058;15.472;2022-09-30T02:44:22;6.23;;;5.73;;
1693;SDS011;844;47.058;15.472;2022-09-30T02:46:55;6.00;;;5.40;;
1693;SDS011;844;47.058;15.472;2022-09-30T02:49:30;6.23;;;5.70;;
1693;SDS011;844;47.058;15.472;2022-09-30T02:52:06;6.37;;;5.00;;
1693;SDS011;844;47.058;15.472;2022-09-30T02:54:46;6.20;;;5.70;;
1693;SDS011;844;47.058;15.472;2022-09-30T02:57:18;6.50;;;5.90;;
1693;SDS011;844;47.058;15.472;2022-09-30T02:59:55;7.63;;;6.03;;
1693;SDS011;844;47.058;15.472;2022-09-30T03:02:29;6.87;;;6.10;;
1693;SDS011;844;47.058;15.472;2022-09-30T03:04:59;9.13;;;6.50;;
1693;SDS011;844;47.058;15.472;2022-09-30T03:07:29;6.47;;;5.97;;
1693;SDS011;844;47.058;15.472;2022-09-30T03:09:59;6.00;;;5.50;;
1693;SDS011;844;47.058;15.472;2022-09-30T03:12:32;7.00;;;5.77;;
1693;SDS011;844;47.058;15.472;2022-09-30T03:19:13;6.13;;;5.63;;
1693;SDS011;844;47.058;15.472;2022-09-30T03:22:00;6.13;;;5.63;;
1693;SDS011;844;47.058;15.472;2022-09-30T03:24:58;6.10;;;5.60;;
1693;SDS011;844;47.058;15.472;2022-09-30T03:28:44;6.17;;;5.60;;
1693;SDS011;844;47.058;15.472;2022-09-30T03:31:45;6.00;;;5.40;;
1693;SDS011;844;47.058;15.472;2022-09-30T03:34:23;7.67;;;6.00;;
1693;SDS011;844;47.058;15.472;2022-09-30T03:37:01;7.10;;;6.50;;
1693;SDS011;844;47.058;15.472;2022-09-30T03:39:37;6.73;;;6.23;;
1693;SDS011;844;47.058;15.472;2022-09-30T03:42:13;6.23;;;5.63;;
1693;SDS011;844;47.058;15.472;2022-09-30T03:44:51;6.23;;;5.33;;
1693;SDS011;844;47.058;15.472;2022-09-30T03:47:25;5.73;;;5.33;;
1693;SDS011;844;47.058;15.472;2022-09-30T03:49:57;6.73;;;6.03;;
1693;SDS011;844;47.058;15.472;2022-09-30T03:52:31;5.80;;;5.30;;
1693;SDS011;844;47.058;15.472;2022-09-30T03:55:03;6.63;;;6.13;;
1693;SDS011;844;47.058;15.472;2022-09-30T03:57:37;7.10;;;6.40;;
1693;SDS011;844;47.058;15.472;2022-09-30T04:00:08;8.40;;;7.30;;
1693;SDS011;844;47.058;15.472;2022-09-30T04:02:37;8.13;;;6.20;;
1693;SDS011;844;47.058;15.472;2022-09-30T04:05:07;5.33;;;4.83;;
1693;SDS011;844;47.058;15.472;2022-09-30T04:07:38;9.47;;;6.80;;
1693;SDS011;844;47.058;15.472;2022-09-30T04:10:08;6.83;;;6.13;;
1693;SDS011;844;47.058;15.472;2022-09-30T04:12:37;8.13;;;6.60;;
1693;SDS011;844;47.058;15.472;2022-09-30T04:15:07;6.80;;;6.17;;
1693;SDS011;844;47.058;15.472;2022-09-30T04:17:37;8.10;;;6.90;;
1693;SDS011;844;47.058;15.472;2022-09-30T04:20:07;12.13;;;6.40;;
1693;SDS011;844;47.058;15.472;2022-09-30T04:22:38;7.40;;;6.80;;
1693;SDS011;844;47.058;15.472;2022-09-30T04:25:07;6.50;;;5.90;;
1693;SDS011;844;47.058;15.472;2022-09-30T04:27:37;8.30;;;7.50;;
1693;SDS011;844;47.058;15.472;2022-09-30T04:30:06;6.73;;;5.90;;
1693;SDS011;844;47.058;15.472;2022-09-30T04:32:36;5.10;;;4.70;;
1693;SDS011;844;47.058;15.472;2022-09-30T04:35:11;5.63;;;5.13;;
1693;SDS011;844;47.058;15.472;2022-09-30T04:37:43;6.07;;;5.47;;
1693;SDS011;844;47.058;15.472;2022-09-30T04:40:13;5.87;;;5.27;;
1693;SDS011;844;47.058;15.472;2022-09-30T04:42:44;7.37;;;6.00;;
1693;SDS011;844;47.058;15.472;2022-09-30T04:45:13;7.27;;;6.53;;
1693;SDS011;844;47.058;15.472;2022-09-30T04:47:43;7.20;;;6.60;;
1693;SDS011;844;47.058;15.472;2022-09-30T04:50:13;6.47;;;5.97;;
1693;SDS011;844;47.058;15.472;2022-09-30T04:52:44;5.43;;;4.93;;
1693;SDS011;844;47.058;15.472;2022-09-30T04:55:13;5.63;;;5.13;;
1693;SDS011;844;47.058;15.472;2022-09-30T04:57:43;5.80;;;5.30;;
1693;SDS011;844;47.058;15.472;2022-09-30T05:00:13;5.97;;;5.37;;
1693;SDS011;844;47.058;15.472;2022-09-30T05:02:42;5.80;;;5.30;;
1693;SDS011;844;47.058;15.472;2022-09-30T05:05:12;5.90;;;5.30;;
1693;SDS011;844;47.058;15.472;2022-09-30T05:07:41;6.70;;;6.10;;
1693;SDS011;844;47.058;15.472;2022-09-30T05:10:12;7.00;;;6.30;;
1693;SDS011;844;47.058;15.472;2022-09-30T05:12:42;7.90;;;6.27;;
1693;SDS011;844;47.058;15.472;2022-09-30T05:15:11;5.93;;;5.43;;
1693;SDS011;844;47.058;15.472;2022-09-30T05:17:41;5.87;;;5.37;;
1693;SDS011;844;47.058;15.472;2022-09-30T05:20:10;8.23;;;7.43;;
1693;SDS011;844;47.058;15.472;2022-09-30T05:22:47;8.03;;;7.33;;
1693;SDS011;844;47.058;15.472;2022-09-30T05:25:22;8.87;;;8.17;;
1693;SDS011;844;47.058;15.472;2022-09-30T05:27:51;11.00;;;10.00;;
1693;SDS011;844;47.058;15.472;2022-09-30T05:30:20;10.87;;;9.90;;
1693;SDS011;844;47.058;15.472;2022-09-30T05:32:50;8.47;;;7.80;;
1693;SDS011;844;47.058;15.472;2022-09-30T05:35:19;9.43;;;8.17;;
1693;SDS011;844;47.058;15.472;2022-09-30T05:37:50;10.17;;;9.27;;
1693;SDS011;844;47.058;15.472;2022-09-30T05:40:19;7.40;;;6.70;;
1693;SDS011;844;47.058;15.472;2022-09-30T05:42:48;11.83;;;10.70;;
1693;SDS011;844;47.058;15.472;2022-09-30T05:45:18;8.80;;;8.00;;
1693;SDS011;844;47.058;15.472;2022-09-30T05:47:49;8.47;;;7.77;;
1693;SDS011;844;47.058;15.472;2022-09-30T05:50:19;9.40;;;8.53;;
1693;SDS011;844;47.058;15.472;2022-09-30T05:52:50;8.00;;;7.30;;
1693;SDS011;844;47.058;15.472;2022-09-30T05:55:19;7.70;;;7.03;;
1693;SDS011;844;47.058;15.472;2022-09-30T05:57:49;7.67;;;6.93;;
1693;SDS011;844;47.058;15.472;2022-09-30T06:00:20;9.83;;;8.67;;
1693;SDS011;844;47.058;15.472;2022-09-30T06:02:50;8.70;;;7.90;;
1693;SDS011;844;47.058;15.472;2022-09-30T06:05:19;12.87;;;10.97;;
1693;SDS011;844;47.058;15.472;2022-09-30T06:07:50;9.53;;;8.60;;
1693;SDS011;844;47.058;15.472;2022-09-30T06:10:20;9.43;;;8.50;;
1693;SDS011;844;47.058;15.472;2022-09-30T06:12:49;11.23;;;10.00;;
1693;SDS011;844;47.058;15.472;2022-09-30T06:15:19;10.70;;;9.13;;
1693;SDS011;844;47.058;15.472;2022-09-30T06:17:50;9.60;;;8.80;;
1693;SDS011;844;47.058;15.472;2022-09-30T06:20:20;11.70;;;10.07;;
1693;SDS011;844;47.058;15.472;2022-09-30T06:22:50;9.23;;;8.43;;
1693;SDS011;844;47.058;15.472;2022-09-30T06:25:20;9.90;;;8.90;;
1693;SDS011;844;47.058;15.472;2022-09-30T06:27:50;8.43;;;7.73;;
1693;SDS011;844;47.058;15.472;2022-09-30T06:30:19;11.33;;;10.30;;
1693;SDS011;844;47.058;15.472;2022-09-30T06:32:49;10.33;;;9.33;;
1693;SDS011;844;47.058;15.472;2022-09-30T06:35:20;10.20;;;9.23;;
1693;SDS011;844;47.058;15.472;2022-09-30T06:37:52;11.27;;;10.17;;
1693;SDS011;844;47.058;15.472;2022-09-30T06:40:21;8.33;;;7.63;;
1693;SDS011;844;47.058;15.472;2022-09-30T06:42:56;10.20;;;9.13;;
1693;SDS011;844;47.058;15.472;2022-09-30T06:45:26;8.20;;;7.37;;
1693;SDS011;844;47.058;15.472;2022-09-30T06:47:59;8.10;;;7.50;;
1693;SDS011;844;47.058;15.472;2022-09-30T06:50:30;7.77;;;7.07;;
1693;SDS011;844;47.058;15.472;2022-09-30T06:53:01;9.87;;;8.30;;
1693;SDS011;844;47.058;15.472;2022-09-30T06:55:32;7.80;;;7.20;;
1693;SDS011;844;47.058;15.472;2022-09-30T06:58:05;9.27;;;8.37;;
1693;SDS011;844;47.058;15.472;2022-09-30T07:00:35;10.00;;;9.10;;
1693;SDS011;844;47.058;15.472;2022-09-30T07:03:05;9.17;;;8.27;;
1693;SDS011;844;47.058;15.472;2022-09-30T07:05:36;10.20;;;9.27;;
1693;SDS011;844;47.058;15.472;2022-09-30T07:08:06;8.80;;;8.00;;
1693;SDS011;844;47.058;15.472;2022-09-30T07:10:36;7.60;;;7.10;;
1693;SDS011;844;47.058;15.472;2022-09-30T07:13:05;8.23;;;7.63;;
1693;SDS011;844;47.058;15.472;2022-09-30T07:15:36;8.80;;;7.87;;
1693;SDS011;844;47.058;15.472;2022-09-30T07:18:06;8.53;;;7.83;;
1693;SDS011;844;47.058;15.472;2022-09-30T07:20:36;8.43;;;7.80;;
1693;SDS011;844;47.058;15.472;2022-09-30T07:23:07;8.87;;;8.17;;
1693;SDS011;844;47.058;15.472;2022-09-30T07:25:37;8.53;;;7.77;;
1693;SDS011;844;47.058;15.472;2022-09-30T07:28:07;7.20;;;6.60;;
1693;SDS011;844;47.058;15.472;2022-09-30T07:30:36;8.87;;;8.13;;
1693;SDS011;844;47.058;15.472;2022-09-30T07:33:10;8.10;;;7.40;;
1693;SDS011;844;47.058;15.472;2022-09-30T07:35:51;6.40;;;5.80;;
1693;SDS011;844;47.058;15.472;2022-09-30T07:38:24;7.90;;;7.20;;
1693;SDS011;844;47.058;15.472;2022-09-30T07:40:55;7.40;;;6.90;;
1693;SDS011;844;47.058;15.472;2022-09-30T07:43:27;9.33;;;8.63;;
1693;SDS011;844;47.058;15.472;2022-09-30T07:46:04;8.53;;;7.73;;
1693;SDS011;844;47.058;15.472;2022-09-30T07:48:34;7.77;;;6.97;;
1693;SDS011;844;47.058;15.472;2022-09-30T07:51:10;12.00;;;8.20;;
1693;SDS011;844;47.058;15.472;2022-09-30T07:53:42;7.63;;;6.67;;
1693;SDS011;844;47.058;15.472;2022-09-30T07:56:13;6.47;;;5.83;;
1693;SDS011;844;47.058;15.472;2022-09-30T07:58:43;9.93;;;5.83;;
1693;SDS011;844;47.058;15.472;2022-09-30T08:01:13;7.47;;;6.63;;
1693;SDS011;844;47.058;15.472;2022-09-30T08:03:43;6.60;;;6.10;;
1693;SDS011;844;47.058;15.472;2022-09-30T08:06:13;6.70;;;6.20;;
1693;SDS011;844;47.058;15.472;2022-09-30T08:08:45;7.67;;;6.97;;
1693;SDS011;844;47.058;15.472;2022-09-30T08:11:14;8.90;;;7.50;;
1693;SDS011;844;47.058;15.472;2022-09-30T08:13:43;11.33;;;9.10;;
1693;SDS011;844;47.058;15.472;2022-09-30T08:16:17;11.73;;;8.40;;
1693;SDS011;844;47.058;15.472;2022-09-30T08:18:46;9.00;;;7.43;;
1693;SDS011;844;47.058;15.472;2022-09-30T08:21:16;9.80;;;8.40;;
1693;SDS011;844;47.058;15.472;2022-09-30T08:23:47;8.73;;;7.93;;
1693;SDS011;844;47.058;15.472;2022-09-30T08:26:16;7.63;;;6.93;;
1693;SDS011;844;47.058;15.472;2022-09-30T08:28:47;7.40;;;6.63;;
1693;SDS011;844;47.058;15.472;2022-09-30T08:31:17;8.03;;;7.37;;
1693;SDS011;844;47.058;15.472;2022-09-30T08:33:52;7.07;;;6.57;;
1693;SDS011;844;47.058;15.472;2022-09-30T08:36:22;6.40;;;5.80;;
1693;SDS011;844;47.058;15.472;2022-09-30T08:38:54;7.77;;;7.07;;
1693;SDS011;844;47.058;15.472;2022-09-30T08:41:31;10.77;;;7.97;;
1693;SDS011;844;47.058;15.472;2022-09-30T08:44:15;6.30;;;5.80;;
1693;SDS011;844;47.058;15.472;2022-09-30T08:46:53;8.10;;;7.40;;
1693;SDS011;844;47.058;15.472;2022-09-30T08:49:35;9.10;;;7.13;;
1693;SDS011;844;47.058;15.472;2022-09-30T08:52:11;6.60;;;6.00;;
1693;SDS011;844;47.058;15.472;2022-09-30T08:55:05;7.33;;;6.63;;
1693;SDS011;844;47.058;15.472;2022-09-30T08:57:42;9.30;;;6.57;;
1693;SDS011;844;47.058;15.472;2022-09-30T09:00:14;7.43;;;6.73;;
1693;SDS011;844;47.058;15.472;2022-09-30T09:02:44;7.50;;;6.80;;
1693;SDS011;844;47.058;15.472;2022-09-30T09:05:22;5.20;;;4.80;;
1693;SDS011;844;47.058;15.472;2022-09-30T09:07:59;6.97;;;6.27;;
1693;SDS011;844;47.058;15.472;2022-09-30T09:10:35;5.17;;;4.63;;
1693;SDS011;844;47.058;15.472;2022-09-30T09:13:12;5.87;;;5.37;;
1693;SDS011;844;47.058;15.472;2022-09-30T09:15:54;6.07;;;5.57;;
1693;SDS011;844;47.058;15.472;2022-09-30T09:18:32;5.67;;;5.20;;
1693;SDS011;844;47.058;15.472;2022-09-30T09:21:12;6.70;;;6.17;;
1693;SDS011;844;47.058;15.472;2022-09-30T09:23:49;5.40;;;4.90;;
1693;SDS011;844;47.058;15.472;2022-09-30T09:26:21;5.30;;;4.90;;
1693;SDS011;844;47.058;15.472;2022-09-30T09:28:57;5.43;;;4.97;;
1693;SDS011;844;47.058;15.472;2022-09-30T09:31:31;5.43;;;5.03;;
1693;SDS011;844;47.058;15.472;2022-09-30T09:34:08;5.70;;;5.20;;
1693;SDS011;844;47.058;15.472;2022-09-30T09:36:43;5.47;;;5.03;;
1693;SDS011;844;47.058;15.472;2022-09-30T09:39:23;6.37;;;5.87;;
1693;SDS011;844;47.058;15.472;2022-09-30T09:42:04;5.80;;;5.30;;
1693;SDS011;844;47.058;15.472;2022-09-30T09:44:41;5.00;;;4.60;;
1693;SDS011;844;47.058;15.472;2022-09-30T09:47:15;4.20;;;3.90;;
1693;SDS011;844;47.058;15.472;2022-09-30T09:49:46;4.87;;;4.37;;
1693;SDS011;844;47.058;15.472;2022-09-30T09:55:32;4.43;;;4.03;;
1693;SDS011;844;47.058;15.472;2022-09-30T09:58:06;3.37;;;3.13;;
1693;SDS011;844;47.058;15.472;2022-09-30T10:00:40;3.23;;;3.03;;
1693;SDS011;844;47.058;15.472;2022-09-30T10:03:30;3.27;;;2.97;;
1693;SDS011;844;47.058;15.472;2022-09-30T10:06:01;2.80;;;2.60;;
1693;SDS011;844;47.058;15.472;2022-09-30T10:08:34;3.40;;;3.20;;
1693;SDS011;844;47.058;15.472;2022-09-30T10:11:05;5.30;;;4.53;;
1693;SDS011;844;47.058;15.472;2022-09-30T10:13:46;3.67;;;3.37;;
1693;SDS011;844;47.058;15.472;2022-09-30T10:19:15;3.37;;;3.07;;
1693;SDS011;844;47.058;15.472;2022-09-30T10:21:47;3.33;;;3.03;;
1693;SDS011;844;47.058;15.472;2022-09-30T10:24:25;3.97;;;3.67;;
1693;SDS011;844;47.058;15.472;2022-09-30T10:26:56;5.20;;;4.07;;
1693;SDS011;844;47.058;15.472;2022-09-30T10:29:28;3.70;;;3.40;;
1693;SDS011;844;47.058;15.472;2022-09-30T10:31:59;4.63;;;3.60;;
1693;SDS011;844;47.058;15.472;2022-09-30T10:34:30;3.77;;;3.47;;
1693;SDS011;844;47.058;15.472;2022-09-30T10:37:06;3.83;;;3.53;;
1693;SDS011;844;47.058;15.472;2022-09-30T10:39:37;3.50;;;3.17;;
1693;SDS011;844;47.058;15.472;2022-09-30T10:42:08;3.77;;;3.47;;
1693;SDS011;844;47.058;15.472;2022-09-30T10:44:44;3.10;;;2.90;;
1693;SDS011;844;47.058;15.472;2022-09-30T10:47:15;3.00;;;2.70;;
1693;SDS011;844;47.058;15.472;2022-09-30T10:49:47;3.50;;;2.77;;
1693;SDS011;844;47.058;15.472;2022-09-30T10:52:19;3.33;;;3.03;;
1693;SDS011;844;47.058;15.472;2022-09-30T10:54:51;12.57;;;4.27;;
1693;SDS011;844;47.058;15.472;2022-09-30T10:57:22;2.87;;;2.53;;
1693;SDS011;844;47.058;15.472;2022-09-30T10:59:56;3.03;;;2.73;;
1693;SDS011;844;47.058;15.472;2022-09-30T11:02:29;3.00;;;2.80;;
1693;SDS011;844;47.058;15.472;2022-09-30T11:05:06;2.90;;;2.70;;
1693;SDS011;844;47.058;15.472;2022-09-30T11:07:41;3.17;;;2.97;;
1693;SDS011;844;47.058;15.472;2022-09-30T11:10:20;3.10;;;2.90;;
1693;SDS011;844;47.058;15.472;2022-09-30T11:12:59;4.00;;;2.63;;
1693;SDS011;844;47.058;15.472;2022-09-30T11:15:34;3.10;;;2.80;;
1693;SDS011;844;47.058;15.472;2022-09-30T11:18:11;3.17;;;2.90;;
1693;SDS011;844;47.058;15.472;2022-09-30T11:20:46;3.00;;;2.63;;
1693;SDS011;844;47.058;15.472;2022-09-30T11:23:19;3.10;;;2.80;;
1693;SDS011;844;47.058;15.472;2022-09-30T11:25:53;4.23;;;2.23;;
1693;SDS011;844;47.058;15.472;2022-09-30T11:31:25;2.30;;;2.10;;
1693;SDS011;844;47.058;15.472;2022-09-30T11:34:04;4.47;;;2.50;;
1693;SDS011;844;47.058;15.472;2022-09-30T11:36:52;3.00;;;2.80;;
1693;SDS011;844;47.058;15.472;2022-09-30T11:39:42;2.60;;;2.40;;
1693;SDS011;844;47.058;15.472;2022-09-30T11:42:20;2.97;;;2.43;;
1693;SDS011;844;47.058;15.472;2022-09-30T11:45:02;3.10;;;2.80;;
1693;SDS011;844;47.058;15.472;2022-09-30T11:47:43;2.97;;;2.77;;
1693;SDS011;844;47.058;15.472;2022-09-30T11:50:31;2.80;;;2.60;;
1693;SDS011;844;47.058;15.472;2022-09-30T11:53:18;3.53;;;2.43;;
1693;SDS011;844;47.058;15.472;2022-09-30T11:55:57;2.03;;;1.93;;
1693;SDS011;844;47.058;15.472;2022-09-30T11:58:38;2.40;;;2.20;;
1693;SDS011;844;47.058;15.472;2022-09-30T12:01:15;2.70;;;2.50;;
1693;SDS011;844;47.058;15.472;2022-09-30T12:03:52;2.73;;;2.47;;
1693;SDS011;844;47.058;15.472;2022-09-30T12:06:27;1.60;;;1.50;;
1693;SDS011;844;47.058;15.472;2022-09-30T12:09:02;2.53;;;2.33;;
1693;SDS011;844;47.058;15.472;2022-09-30T12:11:43;2.13;;;2.03;;
1693;SDS011;844;47.058;15.472;2022-09-30T12:14:17;3.07;;;2.27;;
1693;SDS011;844;47.058;15.472;2022-09-30T12:16:51;2.23;;;2.10;;
1693;SDS011;844;47.058;15.472;2022-09-30T12:19:30;2.03;;;1.93;;
1693;SDS011;844;47.058;15.472;2022-09-30T12:22:03;2.57;;;2.37;;
1693;SDS011;844;47.058;15.472;2022-09-30T12:24:40;1.90;;;1.80;;
1693;SDS011;844;47.058;15.472;2022-09-30T12:27:13;1.97;;;1.77;;
1693;SDS011;844;47.058;15.472;2022-09-30T12:29:47;1.70;;;1.60;;
1693;SDS011;844;47.058;15.472;2022-09-30T12:35:37;2.20;;;1.67;;
1693;SDS011;844;47.058;15.472;2022-09-30T12:38:21;1.67;;;1.57;;
1693;SDS011;844;47.058;15.472;2022-09-30T12:41:02;1.90;;;1.80;;
1693;SDS011;844;47.058;15.472;2022-09-30T12:46:40;1.43;;;1.20;;
1693;SDS011;844;47.058;15.472;2022-09-30T12:49:18;1.60;;;1.50;;
1693;SDS011;844;47.058;15.472;2022-09-30T12:51:53;1.37;;;1.27;;
1693;SDS011;844;47.058;15.472;2022-09-30T12:54:25;2.43;;;1.50;;
1693;SDS011;844;47.058;15.472;2022-09-30T12:56:59;2.33;;;1.30;;
1693;SDS011;844;47.058;15.472;2022-09-30T12:59:30;1.60;;;1.50;;
1693;SDS011;844;47.058;15.472;2022-09-30T13:02:04;2.27;;;1.93;;
1693;SDS011;844;47.058;15.472;2022-09-30T13:04:38;1.60;;;1.30;;
1693;SDS011;844;47.058;15.472;2022-09-30T13:07:17;1.30;;;1.20;;
1693;SDS011;844;47.058;15.472;2022-09-30T13:09:58;1.57;;;1.47;;
1693;SDS011;844;47.058;15.472;2022-09-30T13:12:39;1.50;;;1.40;;
1693;SDS011;844;47.058;15.472;2022-09-30T13:15:32;1.60;;;1.50;;
1693;SDS011;844;47.058;15.472;2022-09-30T13:21:20;2.03;;;1.40;;
1693;SDS011;844;47.058;15.472;2022-09-30T13:23:52;1.77;;;1.67;;
1693;SDS011;844;47.058;15.472;2022-09-30T13:26:34;3.00;;;1.93;;
1693;SDS011;844;47.058;15.472;2022-09-30T13:32:11;2.10;;;1.80;;
1693;SDS011;844;47.058;15.472;2022-09-30T13:34:52;2.30;;;2.10;;
1693;SDS011;844;47.058;15.472;2022-09-30T13:40:15;2.40;;;2.20;;
1693;SDS011;844;47.058;15.472;2022-09-30T13:43:09;2.10;;;1.77;;
1693;SDS011;844;47.058;15.472;2022-09-30T13:45:42;2.80;;;2.50;;
1693;SDS011;844;47.058;15.472;2022-09-30T13:48:13;2.80;;;2.60;;
1693;SDS011;844;47.058;15.472;2022-09-30T13:50:46;3.30;;;2.43;;
1693;SDS011;844;47.058;15.472;2022-09-30T13:53:19;3.63;;;2.50;;
1693;SDS011;844;47.058;15.472;2022-09-30T13:56:11;2.30;;;2.10;;
1693;SDS011;844;47.058;15.472;2022-09-30T13:59:03;2.07;;;1.97;;
1693;SDS011;844;47.058;15.472;2022-09-30T14:05:36;2.27;;;2.07;;
1693;SDS011;844;47.058;15.472;2022-09-30T14:08:23;2.20;;;2.10;;
1693;SDS011;844;47.058;15.472;2022-09-30T14:11:10;2.10;;;1.90;;
1693;SDS011;844;47.058;15.472;2022-09-30T14:13:55;3.30;;;2.60;;
1693;SDS011;844;47.058;15.472;2022-09-30T14:16:52;2.47;;;2.27;;
1693;SDS011;844;47.058;15.472;2022-09-30T14:19:50;2.90;;;1.80;;
1693;SDS011;844;47.058;15.472;2022-09-30T14:22:26;2.67;;;2.03;;
1693;SDS011;844;47.058;15.472;2022-09-30T14:25:00;2.50;;;2.30;;
1693;SDS011;844;47.058;15.472;2022-09-30T14:27:52;3.23;;;2.50;;
1693;SDS011;844;47.058;15.472;2022-09-30T14:30:27;5.70;;;2.20;;
1693;SDS011;844;47.058;15.472;2022-09-30T14:33:02;2.50;;;2.07;;
1693;SDS011;844;47.058;15.472;2022-09-30T14:35:47;2.80;;;2.60;;
1693;SDS011;844;47.058;15.472;2022-09-30T14:38:19;3.90;;;2.93;;
1693;SDS011;844;47.058;15.472;2022-09-30T14:41:00;3.10;;;2.77;;
1693;SDS011;844;47.058;15.472;2022-09-30T14:43:34;2.20;;;2.10;;
1693;SDS011;844;47.058;15.472;2022-09-30T14:46:12;2.87;;;2.67;;
1693;SDS011;844;47.058;15.472;2022-09-30T14:48:54;2.07;;;1.87;;
1693;SDS011;844;47.058;15.472;2022-09-30T14:51:29;2.53;;;2.33;;
1693;SDS011;844;47.058;15.472;2022-09-30T14:54:13;2.50;;;2.30;;
1693;SDS011;844;47.058;15.472;2022-09-30T14:56:47;2.93;;;2.73;;
1693;SDS011;844;47.058;15.472;2022-09-30T14:59:20;4.40;;;2.50;;
1693;SDS011;844;47.058;15.472;2022-09-30T15:01:53;2.30;;;1.90;;
1693;SDS011;844;47.058;15.472;2022-09-30T15:04:27;2.50;;;2.30;;
1693;SDS011;844;47.058;15.472;2022-09-30T15:07:00;3.10;;;2.73;;
1693;SDS011;844;47.058;15.472;2022-09-30T15:09:33;3.00;;;2.80;;
1693;SDS011;844;47.058;15.472;2022-09-30T15:12:04;2.40;;;2.10;;
1693;SDS011;844;47.058;15.472;2022-09-30T15:14:43;2.90;;;2.70;;
1693;SDS011;844;47.058;15.472;2022-09-30T15:17:16;2.07;;;1.90;;
1693;SDS011;844;47.058;15.472;2022-09-30T15:19:47;2.07;;;1.97;;
1693;SDS011;844;47.058;15.472;2022-09-30T15:22:23;2.50;;;2.30;;
1693;SDS011;844;47.058;15.472;2022-09-30T15:24:57;2.83;;;2.63;;
1693;SDS011;844;47.058;15.472;2022-09-30T15:27:28;2.53;;;2.33;;
1693;SDS011;844;47.058;15.472;2022-09-30T15:30:02;3.23;;;2.30;;
1693;SDS011;844;47.058;15.472;2022-09-30T15:32:54;2.20;;;2.00;;
1693;SDS011;844;47.058;15.472;2022-09-30T15:35:28;4.00;;;2.10;;
1693;SDS011;844;47.058;15.472;2022-09-30T15:38:07;2.33;;;2.13;;
1693;SDS011;844;47.058;15.472;2022-09-30T15:40:42;2.20;;;2.00;;
1693;SDS011;844;47.058;15.472;2022-09-30T15:43:28;2.80;;;2.00;;
1693;SDS011;844;47.058;15.472;2022-09-30T15:46:25;2.60;;;2.00;;
1693;SDS011;844;47.058;15.472;2022-09-30T15:49:03;2.90;;;2.67;;
1693;SDS011;844;47.058;15.472;2022-09-30T15:51:56;2.80;;;2.60;;
1693;SDS011;844;47.058;15.472;2022-09-30T15:58:11;2.40;;;2.23;;
1693;SDS011;844;47.058;15.472;2022-09-30T16:01:11;2.73;;;2.53;;
1693;SDS011;844;47.058;15.472;2022-09-30T16:03:47;4.23;;;3.70;;
1693;SDS011;844;47.058;15.472;2022-09-30T16:06:23;3.83;;;3.07;;
1693;SDS011;844;47.058;15.472;2022-09-30T16:08:55;2.90;;;2.60;;
1693;SDS011;844;47.058;15.472;2022-09-30T16:11:32;3.00;;;2.70;;
1693;SDS011;844;47.058;15.472;2022-09-30T16:14:08;2.90;;;2.43;;
1693;SDS011;844;47.058;15.472;2022-09-30T16:16:46;2.70;;;2.43;;
1693;SDS011;844;47.058;15.472;2022-09-30T16:19:19;2.87;;;2.67;;
1693;SDS011;844;47.058;15.472;2022-09-30T16:21:54;4.57;;;3.20;;
1693;SDS011;844;47.058;15.472;2022-09-30T16:24:39;2.60;;;2.40;;
1693;SDS011;844;47.058;15.472;2022-09-30T16:30:13;3.50;;;3.17;;
1693;SDS011;844;47.058;15.472;2022-09-30T16:32:44;5.53;;;4.77;;
1693;SDS011;844;47.058;15.472;2022-09-30T16:35:17;6.70;;;6.10;;
1693;SDS011;844;47.058;15.472;2022-09-30T16:37:56;7.47;;;4.90;;
1693;SDS011;844;47.058;15.472;2022-09-30T16:40:29;4.70;;;4.27;;
1693;SDS011;844;47.058;15.472;2022-09-30T16:43:04;4.03;;;3.60;;